AirNav   ProFlight Series 2 Aviation Headset
 
 1026 users online  

78PN Farmington Township Airpark Heliport
Leeper, Pennsylvania, USA

GOING TO LEEPER?


FAA INFORMATION EFFECTIVE 18 JUNE 2020

Location

FAA Identifier: 78PN
Lat/Long: 41-22-24.6800N 079-18-23.7900W
41-22.411333N 079-18.396500W
41.3735222,-79.3066083
(estimated)
Elevation: 1620 ft. / 494 m (estimated)
From city: 1 mile NW of LEEPER, PA
Time zone: UTC -4 (UTC -5 during Standard Time)
Zip code: 16233

Heliport Operations

Heliport use: Private use. Permission required prior to landing
Activation date: 03/2009
Control tower: no
ARTCC: CLEVELAND CENTER
FSS: ALTOONA FLIGHT SERVICE STATION
Attendance: UNATNDD
Wind indicator: yes
Segmented circle: yes

Heliport Communications

WX AWOS-3 at AXQ (11 nm SW): 118.275 (814-227-2899)

Nearby radio navigation aids

VOR radial/distance  VOR name  Freq  Var
CIPr033/15.2CLARION VOR/DME112.9006W
FKLr105/(25.1)FRANKLIN VOR109.6006W
BFDr238/39.6BRADFORD VOR/DME116.6007W

Heliport Services

Runway Information

Helipad H1

Dimensions: 50 x 50 ft. / 15 x 15 m
Surface: asphalt
Latitude: 41-22.411333N
Longitude: 079-18.396500W
Elevation: 1620.0 ft.
Traffic pattern: leftleft

Heliport Ownership and Management from official FAA records

Ownership: Privately-owned
Owner: FARMINGTON TOWNSHIP
P.O.BOX 148
LEEPER, PA 16233
Phone 814-744-8523
Manager: DAVID CRISE, CHAIRMAN
P.O. BOX 148
LEEPER, PA 16233
Phone 814-744-8523

Additional Remarks

20 FT BALLFIELD AND POLES 220 FT N OF HELIPORT; 40 FT TREES 300 FT NW OF HELIPORT.
FOR CD CTC CLEVELAND ARTCC AT 440-774-0234.

Instrument Procedures

There are no published instrument procedures at 78PN.

Some nearby airports with instrument procedures:

KAXQ - Clarion County Airport (11 nm SW)
KDUJ - Dubois Regional Airport (22 nm SE)
6G1 - Titusville Airport (24 nm NW)
KFKL - Venango Regional Airport (25 nm W)
N35 - Punxsutawney Municipal Airport (30 nm SE)
 
Loc | Ops | Rwys | IFR | FBO | Links
Com | Nav | Svcs | Stats | Notes
Aerial photo
No photo
 
Sectional chart

 
Airport distance calculator
Flying to Farmington Township Airpark Heliport? Find the distance to fly.

From to 78PN

Sunrise and sunset
Times for 12-Jul-2020
 Local
(UTC-4)
 Zulu
(UTC)
Morning civil twilight05:2309:23
Sunrise05:5609:56
Sunset20:5000:50
Evening civil twilight21:2301:23

Current date and time
Zulu (UTC)  12-Jul-2020 18:42:50
Local (UTC-4)  12-Jul-2020 14:42:50
 
METAR
KDUJ 
22nm SE 
121803Z AUTO VRB04KT 9SM -RA FEW038 BKN090 OVC110 19/13 A2981 RMK AO2 LTG DSNT W P0000 T01890133 $
KFKL 
25nm W 
121756Z AUTO 28005KT 10SM FEW027 SCT080 24/19 A2981 RMK AO2 LTG DSNT E AND SW RAE43 SLP087 P0006 60007 T02390189 10267 20189 58002
KOYM 
36nm E 
121815Z AUTO 27006KT 10SM BKN048 BKN070 BKN100 25/16 A2981 RMK AO2
KBFD 
40nm NE 
121753Z AUTO 32006KT 10SM CLR 26/14 A2980 RMK AO2 SLP076 T02610144 10261 20189 58008
KGKJ 
44nm W 
121753Z AUTO 30007KT 10SM CLR 24/16 A2980 RMK AO2 SLP083 T02440161 10256 20200 58000
TAF
KDUJ 
22nm SE 
121723Z 1218/1318 20010KT P6SM -TSRA BKN045CB FM121900 21007KT P6SM BKN045 FM122000 27005KT P6SM VCTS BKN040CB FM130000 34003KT P6SM BKN025 FM131700 33008KT P6SM SCT050
KFKL 
25nm W 
121723Z 1218/1318 27010KT P6SM -TSRA BKN045CB FM121900 21007KT P6SM BKN045 FM122000 27005KT P6SM VCTS BKN040CB FM130000 34003KT P6SM BKN025 FM131700 33008KT P6SM SCT050
NOTAMs
Click for the latest NOTAMs
NOTAMs are issued by the DoD/FAA and will open in a separate window not controlled by AirNav.

 

 
 

Would you like to see your business listed on this page?

 If your business provides an interesting product or service to pilots, flight crews, aircraft, or users of the Farmington Township Airpark Heliport, you should consider listing it here.  To start the listing process, click on the button below
 
Add a business
 

Other Pages about Farmington Township Airpark Heliport

Update a link
 
Copyright © AirNav, LLC. All rights reserved. Privacy Policy  Contact